Time;durP1;ratioP1;P1;durP2;ratioP2;P2;SDS_P1;SDS_P2;PMS_P1;PMS_P2;Temp;Humidity;BMP_temperature;BMP_pressure;BME280_temperature;BME280_humidity;BME280_pressure;Samples;Min_cycle;Max_cycle;Signal;HPM_P1;HPM_P2
2023/05/19 00:01:16;;;;;;;0.20;0.10;;;;;;;;;;4983472;28;20061;-83
2023/05/19 00:03:51;;;;;;;0.20;0.10;;;;;;;;;;4983856;28;20042;-82
2023/05/19 00:06:18;;;;;;;0.20;0.10;;;;;;;;;;4970478;28;20138;-82
2023/05/19 00:08:44;;;;;;;0.20;0.10;;;;;;;;;;4983935;28;20038;-84
2023/05/19 00:11:10;;;;;;;0.30;0.30;;;;;;;;;;4968322;28;20034;-83
2023/05/19 00:13:36;;;;;;;0.20;0.10;;;;;;;;;;4986110;28;20046;-82
2023/05/19 00:16:02;;;;;;;0.20;0.10;;;;;;;;;;4964158;28;20038;-85
2023/05/19 00:18:29;;;;;;;0.30;0.20;;;;;;;;;;4986101;28;20054;-82
2023/05/19 00:20:55;;;;;;;0.30;0.30;;;;;;;;;;4969313;28;20038;-83
2023/05/19 00:23:21;;;;;;;0.22;0.20;;;;;;;;;;4982892;28;20545;-82
2023/05/19 00:25:47;;;;;;;0.20;0.10;;;;;;;;;;4982171;28;20034;-83
2023/05/19 00:28:13;;;;;;;0.20;0.10;;;;;;;;;;4982449;28;20038;-83
2023/05/19 00:30:39;;;;;;;0.20;0.10;;;;;;;;;;4981989;28;20157;-81
2023/05/19 00:33:05;;;;;;;0.25;0.20;;;;;;;;;;4980750;28;20046;-83
2023/05/19 00:35:31;;;;;;;0.20;0.10;;;;;;;;;;4972761;28;20034;-83
2023/05/19 00:37:57;;;;;;;0.20;0.10;;;;;;;;;;4985529;28;20046;-82
2023/05/19 00:40:23;;;;;;;0.20;0.10;;;;;;;;;;4967086;28;20037;-82
2023/05/19 00:42:49;;;;;;;0.20;0.10;;;;;;;;;;4981618;28;20128;-81
2023/05/19 00:45:15;;;;;;;0.20;0.10;;;;;;;;;;4968364;28;20046;-82
2023/05/19 00:47:41;;;;;;;0.20;0.10;;;;;;;;;;4962833;28;20045;-82
2023/05/19 00:50:08;;;;;;;0.20;0.10;;;;;;;;;;4971841;28;20038;-81
2023/05/19 00:52:34;;;;;;;0.20;0.10;;;;;;;;;;4978082;28;20514;-81
2023/05/19 00:55:00;;;;;;;0.20;0.20;;;;;;;;;;4982184;28;20041;-82
2023/05/19 00:57:27;;;;;;;0.20;0.10;;;;;;;;;;4983569;28;20121;-81
2023/05/19 00:59:53;;;;;;;0.20;0.10;;;;;;;;;;4982851;28;20054;-82
2023/05/19 01:02:19;;;;;;;0.20;0.17;;;;;;;;;;4961913;28;20034;-82
2023/05/19 01:04:45;;;;;;;0.20;0.20;;;;;;;;;;4978625;28;20046;-81
2023/05/19 01:07:11;;;;;;;0.20;0.10;;;;;;;;;;4980406;28;20659;-81
2023/05/19 01:09:38;;;;;;;0.20;0.10;;;;;;;;;;4982230;28;20053;-82
2023/05/19 01:12:04;;;;;;;0.20;0.10;;;;;;;;;;4965351;28;20072;-82
2023/05/19 01:14:30;;;;;;;0.20;0.10;;;;;;;;;;4980561;28;20511;-82
2023/05/19 01:17:15;;;;;;;0.55;0.55;;;;;;;;;;4984083;28;20053;-83
2023/05/19 01:19:45;;;;;;;0.20;0.10;;;;;;;;;;4978215;28;20094;-83
2023/05/19 01:22:30;;;;;;;0.20;0.10;;;;;;;;;;4983053;28;20038;-82
2023/05/19 01:25:12;;;;;;;0.20;0.20;;;;;;;;;;4963312;28;20038;-82
2023/05/19 01:27:38;;;;;;;0.20;0.10;;;;;;;;;;4980052;28;20054;-82
2023/05/19 01:30:07;;;;;;;0.20;0.10;;;;;;;;;;4981562;28;20049;-83
2023/05/19 01:32:34;;;;;;;0.22;0.13;;;;;;;;;;4977399;28;20085;-83
2023/05/19 01:35:00;;;;;;;0.20;0.10;;;;;;;;;;4982691;28;20148;-81
2023/05/19 01:37:28;;;;;;;0.20;0.10;;;;;;;;;;4963294;28;20042;-82
2023/05/19 01:39:54;;;;;;;0.20;0.20;;;;;;;;;;4981338;28;20042;-84
2023/05/19 01:42:21;;;;;;;0.20;0.20;;;;;;;;;;4980011;28;20070;-83
2023/05/19 01:44:47;;;;;;;0.20;0.10;;;;;;;;;;4966120;28;20049;-82
2023/05/19 01:47:14;;;;;;;0.20;0.10;;;;;;;;;;4966620;28;20057;-82
2023/05/19 01:49:40;;;;;;;0.30;0.30;;;;;;;;;;4968160;28;20042;-81
2023/05/19 01:52:06;;;;;;;0.20;0.10;;;;;;;;;;4963482;28;20054;-80
2023/05/19 01:54:32;;;;;;;0.20;0.10;;;;;;;;;;4962733;28;20177;-81
2023/05/19 01:57:01;;;;;;;5.93;0.45;;;;;;;;;;4979381;28;20042;-81
2023/05/19 01:59:42;;;;;;;0.20;0.10;;;;;;;;;;4961861;28;20522;-81
2023/05/19 02:02:15;;;;;;;0.35;0.30;;;;;;;;;;4967150;28;20030;-80
2023/05/19 02:04:49;;;;;;;0.20;0.10;;;;;;;;;;4980811;28;20034;-81
2023/05/19 02:07:19;;;;;;;0.20;0.10;;;;;;;;;;4979436;28;20042;-82
2023/05/19 02:10:01;;;;;;;0.20;0.10;;;;;;;;;;4962202;28;20050;-81
2023/05/19 02:12:40;;;;;;;0.30;0.22;;;;;;;;;;4977874;28;20062;-80
2023/05/19 02:15:09;;;;;;;0.43;0.20;;;;;;;;;;4979653;28;20118;-80
2023/05/19 02:17:38;;;;;;;0.20;0.20;;;;;;;;;;4973740;28;20407;-81
2023/05/19 02:20:05;;;;;;;0.73;0.35;;;;;;;;;;4974295;28;20129;-80
2023/05/19 02:22:31;;;;;;;0.20;0.10;;;;;;;;;;4981032;28;20031;-83
2023/05/19 02:24:57;;;;;;;0.20;0.10;;;;;;;;;;4982712;28;20035;-83
2023/05/19 02:27:23;;;;;;;0.20;0.10;;;;;;;;;;4963305;28;20037;-80
2023/05/19 02:29:49;;;;;;;0.20;0.10;;;;;;;;;;4981392;28;20046;-82
2023/05/19 02:32:15;;;;;;;0.45;0.28;;;;;;;;;;4979725;28;20042;-81
2023/05/19 02:34:44;;;;;;;0.20;0.10;;;;;;;;;;4967069;28;20042;-82
2023/05/19 02:37:11;;;;;;;0.20;0.10;;;;;;;;;;4978703;28;20053;-83
2023/05/19 02:39:37;;;;;;;0.20;0.10;;;;;;;;;;4966165;28;20094;-81
2023/05/19 02:42:03;;;;;;;0.20;0.10;;;;;;;;;;4965478;28;20078;-82
2023/05/19 02:44:29;;;;;;;0.20;0.10;;;;;;;;;;4977833;28;20131;-81
2023/05/19 02:46:55;;;;;;;0.20;0.10;;;;;;;;;;4981020;28;20450;-82
2023/05/19 02:49:21;;;;;;;0.30;0.20;;;;;;;;;;4983602;28;20129;-81
2023/05/19 02:51:47;;;;;;;0.20;0.10;;;;;;;;;;4980901;28;20054;-81
2023/05/19 02:54:13;;;;;;;0.30;0.20;;;;;;;;;;4985078;28;20042;-82
2023/05/19 02:56:39;;;;;;;0.20;0.10;;;;;;;;;;4982422;28;20046;-83
2023/05/19 02:59:05;;;;;;;0.20;0.10;;;;;;;;;;4984126;28;20069;-82
2023/05/19 03:01:31;;;;;;;0.20;0.10;;;;;;;;;;4966867;28;20121;-82
2023/05/19 03:03:57;;;;;;;0.20;0.20;;;;;;;;;;5000352;28;20042;-83
2023/05/19 03:06:23;;;;;;;0.20;0.10;;;;;;;;;;4982812;28;20042;-82
2023/05/19 03:08:50;;;;;;;0.20;0.10;;;;;;;;;;4981086;28;20573;-82
2023/05/19 03:11:16;;;;;;;0.20;0.10;;;;;;;;;;4985630;28;20298;-82
2023/05/19 03:13:42;;;;;;;0.20;0.10;;;;;;;;;;4986267;28;20042;-83
2023/05/19 03:16:08;;;;;;;0.20;0.10;;;;;;;;;;4971165;28;20044;-84
2023/05/19 03:18:34;;;;;;;0.20;0.10;;;;;;;;;;4983804;28;20392;-83
2023/05/19 03:21:00;;;;;;;0.38;0.17;;;;;;;;;;4985692;28;20110;-85
2023/05/19 03:23:27;;;;;;;0.20;0.10;;;;;;;;;;4981912;28;20081;-83
2023/05/19 03:25:54;;;;;;;0.20;0.10;;;;;;;;;;4963492;28;20053;-82
2023/05/19 03:28:22;;;;;;;0.20;0.20;;;;;;;;;;4984019;28;20099;-83
2023/05/19 03:30:49;;;;;;;0.20;0.10;;;;;;;;;;4987321;28;20529;-83
2023/05/19 03:33:15;;;;;;;0.20;0.10;;;;;;;;;;4987606;28;20165;-86
2023/05/19 03:35:43;;;;;;;0.20;0.10;;;;;;;;;;4972465;28;20427;-82
2023/05/19 03:38:09;;;;;;;0.20;0.10;;;;;;;;;;4984379;28;20503;-82
2023/05/19 03:40:35;;;;;;;0.20;0.10;;;;;;;;;;4982011;28;20034;-83
2023/05/19 03:43:01;;;;;;;0.20;0.10;;;;;;;;;;4971461;28;20030;-82
2023/05/19 03:45:27;;;;;;;0.20;0.10;;;;;;;;;;4986470;28;20062;-82
2023/05/19 03:47:53;;;;;;;0.20;0.10;;;;;;;;;;4989096;28;20039;-82
2023/05/19 03:50:20;;;;;;;0.20;0.10;;;;;;;;;;4985521;28;20042;-82
2023/05/19 03:52:46;;;;;;;0.20;0.08;;;;;;;;;;4986916;28;20042;-83
2023/05/19 03:55:15;;;;;;;0.20;0.10;;;;;;;;;;4983475;28;20046;-83
2023/05/19 03:57:43;;;;;;;0.20;0.10;;;;;;;;;;4984232;28;20042;-85
2023/05/19 04:00:12;;;;;;;0.20;0.20;;;;;;;;;;4985359;28;20042;-82
2023/05/19 04:02:39;;;;;;;0.20;0.10;;;;;;;;;;4982534;28;20145;-84
2023/05/19 04:05:05;;;;;;;0.20;0.10;;;;;;;;;;4986790;28;20712;-83
2023/05/19 04:07:32;;;;;;;0.20;0.10;;;;;;;;;;4969231;28;22147;-84
2023/05/19 04:09:58;;;;;;;0.20;0.10;;;;;;;;;;4988706;28;20042;-84
2023/05/19 04:12:23;;;;;;;0.20;0.10;;;;;;;;;;4969733;28;20097;-83
2023/05/19 04:14:49;;;;;;;0.20;0.10;;;;;;;;;;4987536;28;20049;-82
2023/05/19 04:17:15;;;;;;;0.20;0.10;;;;;;;;;;4985378;28;20088;-84
2023/05/19 04:19:41;;;;;;;0.20;0.17;;;;;;;;;;4988211;28;20046;-83
2023/05/19 04:22:07;;;;;;;0.30;0.25;;;;;;;;;;4987181;28;20042;-82
2023/05/19 04:24:33;;;;;;;0.20;0.10;;;;;;;;;;4984451;28;20041;-84
2023/05/19 04:27:01;;;;;;;0.20;0.10;;;;;;;;;;4986656;28;20035;-83
2023/05/19 04:29:28;;;;;;;0.30;0.20;;;;;;;;;;4985777;28;20053;-83
2023/05/19 04:31:54;;;;;;;0.65;0.43;;;;;;;;;;4987320;28;20054;-82
2023/05/19 04:34:20;;;;;;;0.20;0.10;;;;;;;;;;4984346;28;21989;-82
2023/05/19 04:36:46;;;;;;;0.20;0.10;;;;;;;;;;4983369;28;20038;-82
2023/05/19 04:39:13;;;;;;;0.20;0.10;;;;;;;;;;4984032;28;20096;-83
2023/05/19 04:41:39;;;;;;;0.20;0.10;;;;;;;;;;4988335;28;20057;-81
2023/05/19 04:44:08;;;;;;;0.20;0.10;;;;;;;;;;4986943;28;20039;-86
2023/05/19 04:46:34;;;;;;;0.20;0.10;;;;;;;;;;4982041;28;20114;-85
2023/05/19 04:49:00;;;;;;;0.20;0.10;;;;;;;;;;4968596;28;20149;-84
2023/05/19 04:51:30;;;;;;;0.20;0.10;;;;;;;;;;4986132;28;20087;-82
2023/05/19 04:53:56;;;;;;;0.20;0.10;;;;;;;;;;4976478;28;20056;-81
2023/05/19 04:56:22;;;;;;;0.20;0.10;;;;;;;;;;4985953;28;21902;-80
2023/05/19 04:58:48;;;;;;;0.20;0.10;;;;;;;;;;4983231;28;20050;-83
2023/05/19 05:01:14;;;;;;;0.20;0.10;;;;;;;;;;4979741;28;20049;-81
2023/05/19 05:03:41;;;;;;;0.20;0.10;;;;;;;;;;4983846;28;20042;-82
2023/05/19 05:06:07;;;;;;;0.20;0.10;;;;;;;;;;4980787;28;20501;-82
2023/05/19 05:08:33;;;;;;;0.68;0.30;;;;;;;;;;4982870;28;20042;-84
2023/05/19 05:11:00;;;;;;;0.20;0.10;;;;;;;;;;4983962;28;20046;-83
2023/05/19 05:13:26;;;;;;;0.20;0.10;;;;;;;;;;4984026;28;20038;-84
2023/05/19 05:15:52;;;;;;;0.20;0.10;;;;;;;;;;4979114;28;20046;-84
2023/05/19 05:18:19;;;;;;;0.20;0.10;;;;;;;;;;4967423;28;20082;-81
2023/05/19 05:20:46;;;;;;;0.20;0.20;;;;;;;;;;4983575;28;20118;-82
2023/05/19 05:23:13;;;;;;;0.20;0.10;;;;;;;;;;4981662;28;20066;-84
2023/05/19 05:25:40;;;;;;;0.52;0.47;;;;;;;;;;4998400;28;20042;-84
2023/05/19 05:28:06;;;;;;;0.20;0.10;;;;;;;;;;4968782;28;20045;-82
2023/05/19 05:30:33;;;;;;;0.20;0.10;;;;;;;;;;4978720;28;20057;-83
2023/05/19 05:32:59;;;;;;;0.20;0.10;;;;;;;;;;4984297;28;20046;-83
2023/05/19 05:35:25;;;;;;;0.20;0.10;;;;;;;;;;4999501;28;20149;-82
2023/05/19 05:37:51;;;;;;;0.20;0.10;;;;;;;;;;4968423;28;20542;-84
2023/05/19 05:40:18;;;;;;;0.90;0.20;;;;;;;;;;4980113;28;20060;-83
2023/05/19 05:42:44;;;;;;;0.20;0.10;;;;;;;;;;4972842;28;20038;-81
2023/05/19 05:45:10;;;;;;;3.60;0.32;;;;;;;;;;4986355;28;20041;-84
2023/05/19 05:47:38;;;;;;;0.20;0.10;;;;;;;;;;4985114;28;20059;-86
2023/05/19 05:50:05;;;;;;;0.20;0.10;;;;;;;;;;4969130;28;20116;-84
2023/05/19 05:52:31;;;;;;;0.35;0.35;;;;;;;;;;4985202;28;20046;-83
2023/05/19 05:54:58;;;;;;;0.20;0.10;;;;;;;;;;4983622;28;20076;-84
2023/05/19 05:57:24;;;;;;;0.20;0.10;;;;;;;;;;4968372;28;20042;-83
2023/05/19 05:59:50;;;;;;;0.20;0.10;;;;;;;;;;4966894;28;20050;-83
2023/05/19 06:02:16;;;;;;;0.20;0.10;;;;;;;;;;4967375;28;20046;-82
2023/05/19 06:04:43;;;;;;;0.20;0.10;;;;;;;;;;4985346;28;20046;-83
2023/05/19 06:07:09;;;;;;;0.20;0.10;;;;;;;;;;4984662;28;20065;-82
2023/05/19 06:09:35;;;;;;;0.20;0.10;;;;;;;;;;4985603;28;20077;-82
2023/05/19 06:12:01;;;;;;;0.20;0.10;;;;;;;;;;4988620;28;20070;-81
2023/05/19 06:14:27;;;;;;;0.47;0.47;;;;;;;;;;4968045;28;20061;-86
2023/05/19 06:16:53;;;;;;;0.20;0.10;;;;;;;;;;4986658;28;20611;-83
2023/05/19 06:19:19;;;;;;;0.52;0.17;;;;;;;;;;4983229;28;20046;-81
2023/05/19 06:21:45;;;;;;;0.30;0.17;;;;;;;;;;4986083;28;20046;-82
2023/05/19 06:24:11;;;;;;;0.20;0.10;;;;;;;;;;4979469;28;20085;-82
2023/05/19 06:26:37;;;;;;;0.20;0.10;;;;;;;;;;4968388;28;20042;-83
2023/05/19 06:29:03;;;;;;;0.20;0.10;;;;;;;;;;4988086;28;20602;-81
2023/05/19 06:31:30;;;;;;;0.20;0.10;;;;;;;;;;4988474;28;20074;-84
2023/05/19 06:33:56;;;;;;;0.25;0.25;;;;;;;;;;4988376;28;20065;-85
2023/05/19 06:36:22;;;;;;;0.20;0.10;;;;;;;;;;4972664;28;20053;-80
2023/05/19 06:38:48;;;;;;;0.20;0.10;;;;;;;;;;4990880;28;20050;-81
2023/05/19 06:41:14;;;;;;;0.20;0.10;;;;;;;;;;4989305;28;20034;-83
2023/05/19 06:43:41;;;;;;;0.20;0.10;;;;;;;;;;4989971;28;20050;-84
2023/05/19 06:46:08;;;;;;;0.20;0.13;;;;;;;;;;4970994;28;20046;-85
2023/05/19 06:48:34;;;;;;;0.20;0.10;;;;;;;;;;4977875;28;20057;-83
2023/05/19 06:51:00;;;;;;;0.20;0.10;;;;;;;;;;4990023;28;20050;-82
2023/05/19 06:53:26;;;;;;;0.20;0.10;;;;;;;;;;4989254;28;20495;-82
2023/05/19 06:55:52;;;;;;;0.20;0.10;;;;;;;;;;4969986;28;20052;-83
2023/05/19 06:58:18;;;;;;;0.20;0.10;;;;;;;;;;4990408;28;20999;-81
2023/05/19 07:00:44;;;;;;;0.20;0.10;;;;;;;;;;4986203;28;20038;-83
2023/05/19 07:03:10;;;;;;;0.20;0.10;;;;;;;;;;4969944;28;20045;-83
2023/05/19 07:05:36;;;;;;;0.20;0.10;;;;;;;;;;4986971;28;20038;-84
2023/05/19 07:08:03;;;;;;;0.20;0.10;;;;;;;;;;4986353;28;20050;-83
2023/05/19 07:10:29;;;;;;;0.20;0.10;;;;;;;;;;4987566;28;20035;-83
2023/05/19 07:12:56;;;;;;;0.20;0.10;;;;;;;;;;4986020;28;20121;-84
2023/05/19 07:15:22;;;;;;;0.20;0.10;;;;;;;;;;4982984;28;20046;-84
2023/05/19 07:17:48;;;;;;;0.20;0.10;;;;;;;;;;4984257;28;20112;-83
2023/05/19 07:20:14;;;;;;;0.20;0.10;;;;;;;;;;4970063;28;20128;-84
2023/05/19 07:22:40;;;;;;;0.20;0.10;;;;;;;;;;4968123;28;20042;-83
2023/05/19 07:25:07;;;;;;;0.20;0.10;;;;;;;;;;4966156;28;20055;-82
2023/05/19 07:27:36;;;;;;;0.20;0.10;;;;;;;;;;4981409;28;20038;-84
2023/05/19 07:30:03;;;;;;;0.20;0.10;;;;;;;;;;4988345;28;20038;-83
2023/05/19 07:32:29;;;;;;;0.20;0.10;;;;;;;;;;4994675;28;20038;-83
2023/05/19 07:34:55;;;;;;;0.20;0.10;;;;;;;;;;4984184;28;20058;-84
2023/05/19 07:37:21;;;;;;;0.20;0.10;;;;;;;;;;4983036;28;20042;-84
2023/05/19 07:39:47;;;;;;;0.20;0.10;;;;;;;;;;4962185;28;20046;-82
2023/05/19 07:42:13;;;;;;;0.20;0.10;;;;;;;;;;4983205;28;20046;-84
2023/05/19 07:44:39;;;;;;;0.20;0.10;;;;;;;;;;4961878;28;20065;-84
2023/05/19 07:47:05;;;;;;;0.20;0.10;;;;;;;;;;4955833;28;20054;-84
2023/05/19 07:49:31;;;;;;;0.20;0.20;;;;;;;;;;4978772;28;20054;-82
2023/05/19 07:51:57;;;;;;;0.20;0.10;;;;;;;;;;4986383;28;20462;-86
2023/05/19 07:54:23;;;;;;;0.50;0.50;;;;;;;;;;4965704;28;20085;-86
2023/05/19 07:56:49;;;;;;;0.63;0.40;;;;;;;;;;4986346;28;20314;-84
2023/05/19 07:59:18;;;;;;;0.73;0.47;;;;;;;;;;4984316;28;20043;-87
2023/05/19 08:01:44;;;;;;;0.20;0.10;;;;;;;;;;4963530;28;20101;-86
2023/05/19 08:04:13;;;;;;;0.20;0.10;;;;;;;;;;4962337;28;20061;-85
2023/05/19 08:06:41;;;;;;;0.20;0.10;;;;;;;;;;4962707;28;20046;-83
2023/05/19 08:09:07;;;;;;;0.20;0.10;;;;;;;;;;4988811;28;20527;-85
2023/05/19 08:11:33;;;;;;;0.20;0.10;;;;;;;;;;4975645;28;20049;-85
2023/05/19 08:13:59;;;;;;;0.20;0.10;;;;;;;;;;4977086;28;20098;-84
2023/05/19 08:16:26;;;;;;;0.20;0.10;;;;;;;;;;4965453;28;20121;-83
2023/05/19 08:18:52;;;;;;;0.20;0.10;;;;;;;;;;4960233;28;20039;-86
2023/05/19 08:21:18;;;;;;;0.20;0.10;;;;;;;;;;4982244;28;20053;-84
2023/05/19 08:23:46;;;;;;;0.20;0.10;;;;;;;;;;4966484;28;20590;-83
2023/05/19 08:26:13;;;;;;;0.28;0.17;;;;;;;;;;4964362;28;20082;-84
2023/05/19 08:28:42;;;;;;;0.20;0.10;;;;;;;;;;4982734;28;20125;-85
2023/05/19 08:31:09;;;;;;;0.20;0.10;;;;;;;;;;4967881;28;20397;-85
2023/05/19 08:33:35;;;;;;;0.20;0.10;;;;;;;;;;4977689;28;20129;-81
2023/05/19 08:36:01;;;;;;;0.20;0.10;;;;;;;;;;4973972;28;20049;-84
2023/05/19 08:38:27;;;;;;;0.20;0.10;;;;;;;;;;4972192;28;20146;-85
2023/05/19 08:40:56;;;;;;;0.20;0.10;;;;;;;;;;4980738;28;20831;-84
2023/05/19 08:43:26;;;;;;;0.20;0.10;;;;;;;;;;4982934;28;20092;-88
2023/05/19 08:45:54;;;;;;;0.45;0.45;;;;;;;;;;4956165;28;20070;-81
2023/05/19 08:48:21;;;;;;;0.40;0.20;;;;;;;;;;4971927;28;20146;-82
2023/05/19 08:51:06;;;;;;;0.20;0.10;;;;;;;;;;4973705;28;20054;-84
2023/05/19 08:53:36;;;;;;;0.20;0.20;;;;;;;;;;4989165;28;20074;-82
2023/05/19 08:56:11;;;;;;;0.20;0.10;;;;;;;;;;4982732;23;20044;-86
2023/05/19 08:58:42;;;;;;;0.20;0.10;;;;;;;;;;5000706;28;20049;-83
2023/05/19 09:01:10;;;;;;;0.20;0.10;;;;;;;;;;5001558;28;20147;-85
2023/05/19 09:03:39;;;;;;;0.20;0.10;;;;;;;;;;5009002;28;20525;-83
2023/05/19 09:06:07;;;;;;;0.20;0.10;;;;;;;;;;5005061;28;20045;-84
2023/05/19 09:08:33;;;;;;;0.20;0.10;;;;;;;;;;5000946;28;20040;-86
2023/05/19 09:10:59;;;;;;;0.20;0.10;;;;;;;;;;5017240;28;20039;-83
2023/05/19 09:13:26;;;;;;;0.47;0.20;;;;;;;;;;5015651;28;21473;-83
2023/05/19 09:16:02;;;;;;;0.20;0.10;;;;;;;;;;5018756;28;20131;-81
2023/05/19 09:18:28;;;;;;;0.20;0.10;;;;;;;;;;5008688;28;20959;-85
2023/05/19 09:20:59;;;;;;;0.20;0.10;;;;;;;;;;5004277;28;20924;-84
2023/05/19 09:23:28;;;;;;;0.20;0.10;;;;;;;;;;5007440;28;20124;-85
2023/05/19 09:26:00;;;;;;;0.20;0.10;;;;;;;;;;5021302;28;20045;-86
2023/05/19 09:28:28;;;;;;;0.20;0.10;;;;;;;;;;5006957;28;20043;-85
2023/05/19 09:31:09;;;;;;;0.20;0.10;;;;;;;;;;5036271;28;20044;-84
2023/05/19 09:33:36;;;;;;;0.20;0.10;;;;;;;;;;5023448;28;20148;-86
2023/05/19 09:36:04;;;;;;;0.20;0.10;;;;;;;;;;5005193;28;20048;-84
2023/05/19 09:38:38;;;;;;;0.20;0.10;;;;;;;;;;5018599;28;20045;-85
2023/05/19 09:41:10;;;;;;;0.20;0.10;;;;;;;;;;5009696;28;20041;-84
2023/05/19 09:43:36;;;;;;;0.20;0.10;;;;;;;;;;5016232;28;20126;-81
2023/05/19 09:46:06;;;;;;;0.30;0.30;;;;;;;;;;5001285;28;20105;-85
2023/05/19 09:48:35;;;;;;;0.20;0.10;;;;;;;;;;5019314;28;20393;-82
2023/05/19 09:51:01;;;;;;;0.20;0.10;;;;;;;;;;5002151;28;20510;-84
2023/05/19 09:53:31;;;;;;;0.20;0.10;;;;;;;;;;5011423;28;20052;-84
2023/05/19 09:56:00;;;;;;;0.20;0.10;;;;;;;;;;4999395;28;20091;-83
2023/05/19 09:58:30;;;;;;;0.20;0.10;;;;;;;;;;5000590;28;20072;-85
2023/05/19 10:00:58;;;;;;;0.20;0.10;;;;;;;;;;5004273;28;20130;-84
2023/05/19 10:03:25;;;;;;;0.20;0.10;;;;;;;;;;5021570;28;20090;-82
2023/05/19 10:05:52;;;;;;;0.50;0.50;;;;;;;;;;5033838;28;20433;-85
2023/05/19 10:08:18;;;;;;;0.82;0.32;;;;;;;;;;5021684;28;20047;-85
2023/05/19 10:10:48;;;;;;;0.20;0.05;;;;;;;;;;5034850;28;20045;-83
2023/05/19 10:13:15;;;;;;;2.17;0.30;;;;;;;;;;5019562;28;20064;-85
2023/05/19 10:15:41;;;;;;;0.20;0.10;;;;;;;;;;5006100;28;20044;-83
2023/05/19 10:18:11;;;;;;;0.20;0.10;;;;;;;;;;5011166;28;20033;-85
2023/05/19 10:20:53;;;;;;;0.20;0.10;;;;;;;;;;5009642;28;20051;-85
2023/05/19 10:23:19;;;;;;;0.20;0.10;;;;;;;;;;5034141;28;20041;-83
2023/05/19 10:25:47;;;;;;;0.20;0.10;;;;;;;;;;5014446;28;20040;-84
2023/05/19 10:28:19;;;;;;;0.20;0.10;;;;;;;;;;5024888;28;20064;-83
2023/05/19 10:30:47;;;;;;;0.20;0.10;;;;;;;;;;5010260;28;20063;-84
2023/05/19 10:33:16;;;;;;;0.20;0.10;;;;;;;;;;5022663;28;20041;-82
2023/05/19 10:35:55;;;;;;;0.20;0.10;;;;;;;;;;5018396;28;20050;-85
2023/05/19 10:38:38;;;;;;;0.20;0.10;;;;;;;;;;5000662;28;20039;-85
2023/05/19 10:41:16;;;;;;;0.32;0.20;;;;;;;;;;5007526;28;20068;-84
2023/05/19 10:43:47;;;;;;;0.20;0.10;;;;;;;;;;5022605;28;20079;-85
2023/05/19 10:46:16;;;;;;;0.20;0.10;;;;;;;;;;5008766;28;20422;-85
2023/05/19 10:48:45;;;;;;;0.20;0.10;;;;;;;;;;4997041;28;20036;-84
2023/05/19 10:51:11;;;;;;;0.20;0.10;;;;;;;;;;5019765;28;20047;-85
2023/05/19 10:53:40;;;;;;;0.20;0.10;;;;;;;;;;5034954;28;20037;-84
2023/05/19 10:56:08;;;;;;;0.20;0.10;;;;;;;;;;5012872;28;20052;-84
2023/05/19 10:58:44;;;;;;;0.20;0.13;;;;;;;;;;5001478;28;20049;-83
2023/05/19 11:01:16;;;;;;;0.32;0.20;;;;;;;;;;4994465;28;20048;-84
2023/05/19 11:03:52;;;;;;;0.20;0.10;;;;;;;;;;4999930;28;20100;-83
2023/05/19 11:06:24;;;;;;;0.20;0.10;;;;;;;;;;5002469;28;20146;-83
2023/05/19 11:09:03;;;;;;;0.20;0.10;;;;;;;;;;5018489;28;20050;-82
2023/05/19 11:11:50;;;;;;;0.20;0.10;;;;;;;;;;5015232;28;20040;-83
2023/05/19 11:14:26;;;;;;;0.20;0.20;;;;;;;;;;5021599;28;20137;-84
2023/05/19 11:16:55;;;;;;;0.20;0.10;;;;;;;;;;5015536;28;20045;-84
2023/05/19 11:19:36;;;;;;;0.20;0.10;;;;;;;;;;5012601;28;20041;-84
2023/05/19 11:22:11;;;;;;;0.20;0.08;;;;;;;;;;5027538;28;20977;-85
2023/05/19 11:24:53;;;;;;;0.20;0.10;;;;;;;;;;5010159;28;20045;-84
2023/05/19 11:27:22;;;;;;;0.20;0.13;;;;;;;;;;5025752;28;20049;-84
2023/05/19 11:29:48;;;;;;;0.20;0.10;;;;;;;;;;5006973;28;20037;-82
2023/05/19 11:32:25;;;;;;;;;;;;;;;;;;;;;
2023/05/19 11:34:52;;;;;;;0.20;0.10;;;;;;;;;;5019027;28;20695;-84
2023/05/19 11:37:18;;;;;;;0.20;0.10;;;;;;;;;;5004833;28;20712;-86
2023/05/19 11:39:45;;;;;;;0.20;0.10;;;;;;;;;;5007789;28;20036;-84
2023/05/19 11:42:14;;;;;;;0.38;0.10;;;;;;;;;;4996937;28;20045;-84
2023/05/19 11:44:41;;;;;;;0.20;0.10;;;;;;;;;;5014994;28;20044;-83
2023/05/19 11:47:10;;;;;;;0.20;0.10;;;;;;;;;;5012460;28;20175;-85
2023/05/19 11:49:42;;;;;;;0.20;0.10;;;;;;;;;;5015571;28;20052;-89
2023/05/19 11:52:08;;;;;;;0.20;0.10;;;;;;;;;;5014635;28;20045;-85
2023/05/19 11:54:50;;;;;;;0.20;0.10;;;;;;;;;;4999977;28;20128;-82
2023/05/19 11:57:22;;;;;;;0.20;0.10;;;;;;;;;;5007888;28;20301;-86
2023/05/19 11:59:51;;;;;;;0.20;0.10;;;;;;;;;;5000684;28;20055;-84
2023/05/19 12:02:23;;;;;;;0.20;0.10;;;;;;;;;;5014839;28;20049;-85
2023/05/19 12:04:49;;;;;;;0.95;0.30;;;;;;;;;;5005773;28;20112;-85
2023/05/19 12:07:18;;;;;;;0.20;0.10;;;;;;;;;;5004352;28;20037;-84
2023/05/19 12:09:45;;;;;;;0.20;0.10;;;;;;;;;;5011595;28;20145;-82
2023/05/19 12:12:23;;;;;;;0.20;0.20;;;;;;;;;;5015903;28;20040;-85
2023/05/19 12:14:57;;;;;;;0.20;0.08;;;;;;;;;;5021858;28;20033;-84
2023/05/19 12:17:29;;;;;;;0.50;0.30;;;;;;;;;;5001968;28;20114;-83
2023/05/19 12:19:58;;;;;;;0.20;0.10;;;;;;;;;;5025689;28;20137;-85
2023/05/19 12:22:24;;;;;;;0.20;0.05;;;;;;;;;;5008563;28;20551;-83
2023/05/19 12:24:55;;;;;;;0.20;0.15;;;;;;;;;;5007230;28;20107;-86
2023/05/19 12:27:27;;;;;;;0.20;0.10;;;;;;;;;;5024194;28;20041;-86
2023/05/19 12:29:53;;;;;;;;;;;;;;;;;;5005409;28;20090;-84
2023/05/19 12:32:32;;;;;;;0.20;0.10;;;;;;;;;;5001688;28;19999;-88
2023/05/19 12:34:59;;;;;;;0.20;0.10;;;;;;;;;;4998314;28;20147;-84
2023/05/19 12:37:28;;;;;;;0.20;0.10;;;;;;;;;;5017150;28;20117;-85
2023/05/19 12:39:57;;;;;;;0.73;0.20;;;;;;;;;;5003350;28;20094;-87
2023/05/19 12:42:30;;;;;;;0.20;0.10;;;;;;;;;;5039426;28;21393;-85
2023/05/19 12:44:57;;;;;;;0.20;0.20;;;;;;;;;;5001080;28;20041;-82
2023/05/19 12:47:29;;;;;;;0.20;0.10;;;;;;;;;;5014753;28;20094;-85
2023/05/19 12:49:58;;;;;;;;;;;;;;;;;;5035187;28;20055;-82
2023/05/19 12:52:24;;;;;;;0.20;0.10;;;;;;;;;;5032743;28;19921;-84
2023/05/19 12:54:57;;;;;;;0.20;0.20;;;;;;;;;;5013834;28;20051;-86
2023/05/19 12:57:23;;;;;;;0.20;0.10;;;;;;;;;;5001614;28;20068;-86
2023/05/19 12:59:49;;;;;;;0.20;0.10;;;;;;;;;;5014624;28;20045;-86
2023/05/19 13:02:16;;;;;;;0.20;0.10;;;;;;;;;;5016030;28;20036;-83
2023/05/19 13:04:42;;;;;;;0.30;0.15;;;;;;;;;;5037356;28;20048;-85
2023/05/19 13:07:09;;;;;;;0.20;0.20;;;;;;;;;;5002013;28;20582;-87
2023/05/19 13:09:38;;;;;;;0.30;0.10;;;;;;;;;;5012416;28;20080;-88
2023/05/19 13:12:04;;;;;;;0.20;0.10;;;;;;;;;;5006090;28;20037;-82
2023/05/19 13:14:30;;;;;;;0.20;0.10;;;;;;;;;;5002596;28;20049;-84
2023/05/19 13:16:56;;;;;;;0.20;0.10;;;;;;;;;;5008565;28;20156;-84
2023/05/19 13:19:22;;;;;;;0.20;0.10;;;;;;;;;;5002064;28;20069;-84
2023/05/19 13:21:51;;;;;;;0.43;0.13;;;;;;;;;;5019106;28;20122;-90
2023/05/19 13:24:20;;;;;;;0.20;0.10;;;;;;;;;;5005230;28;20120;-83
2023/05/19 13:26:49;;;;;;;0.20;0.10;;;;;;;;;;4996928;28;20076;-84
2023/05/19 13:29:36;;;;;;;0.20;0.10;;;;;;;;;;5019994;28;20037;-84
2023/05/19 13:32:04;;;;;;;0.20;0.10;;;;;;;;;;5021485;28;20053;-84
2023/05/19 13:34:30;;;;;;;0.20;0.10;;;;;;;;;;4997026;28;20914;-84
2023/05/19 13:36:56;;;;;;;0.20;0.20;;;;;;;;;;5004960;28;20060;-84
2023/05/19 13:39:22;;;;;;;0.20;0.10;;;;;;;;;;5015783;28;20037;-84
2023/05/19 13:41:49;;;;;;;0.20;0.10;;;;;;;;;;5014741;28;20060;-84
2023/05/19 13:44:26;;;;;;;0.20;0.10;;;;;;;;;;5000368;28;20041;-83
2023/05/19 13:46:52;;;;;;;0.20;0.10;;;;;;;;;;5000136;28;20029;-84
2023/05/19 13:49:19;;;;;;;0.20;0.10;;;;;;;;;;5011914;28;20106;-86
2023/05/19 13:51:45;;;;;;;0.20;0.17;;;;;;;;;;5005258;28;20041;-84
2023/05/19 13:54:11;;;;;;;0.20;0.10;;;;;;;;;;5019480;28;20049;-86
2023/05/19 13:56:37;;;;;;;0.20;0.10;;;;;;;;;;5019217;28;20049;-82
2023/05/19 13:59:03;;;;;;;0.20;0.10;;;;;;;;;;5036733;28;20052;-86
2023/05/19 14:01:35;;;;;;;0.20;0.10;;;;;;;;;;5020658;28;20525;-87
2023/05/19 14:04:01;;;;;;;0.20;0.10;;;;;;;;;;5024486;28;20045;-85
2023/05/19 14:06:27;;;;;;;0.20;0.10;;;;;;;;;;5018130;28;20033;-87
2023/05/19 14:08:54;;;;;;;0.20;0.10;;;;;;;;;;5021529;28;20041;-82
2023/05/19 14:11:20;;;;;;;0.20;0.10;;;;;;;;;;5032857;28;20063;-87
2023/05/19 14:13:49;;;;;;;0.20;0.10;;;;;;;;;;5009427;28;20049;-85
2023/05/19 14:16:19;;;;;;;0.20;0.10;;;;;;;;;;5001577;28;20045;-86
2023/05/19 14:18:45;;;;;;;0.20;0.20;;;;;;;;;;4997207;28;20045;-84
2023/05/19 14:21:11;;;;;;;0.20;0.10;;;;;;;;;;5015797;28;20622;-84
2023/05/19 14:23:37;;;;;;;0.20;0.10;;;;;;;;;;5021538;28;20089;-85
2023/05/19 14:26:06;;;;;;;0.20;0.10;;;;;;;;;;5005358;28;20501;-87
2023/05/19 14:28:32;;;;;;;0.22;0.20;;;;;;;;;;4996503;28;20079;-83
2023/05/19 14:30:58;;;;;;;0.38;0.20;;;;;;;;;;5006357;28;20045;-84
2023/05/19 14:33:24;;;;;;;0.20;0.10;;;;;;;;;;5016286;28;20159;-86
2023/05/19 14:35:58;;;;;;;0.20;0.10;;;;;;;;;;4993946;28;20191;-85
2023/05/19 14:38:28;;;;;;;0.30;0.17;;;;;;;;;;5004599;28;20352;-84
2023/05/19 14:40:54;;;;;;;0.35;0.20;;;;;;;;;;5031177;28;20037;-85
2023/05/19 14:43:22;;;;;;;0.20;0.10;;;;;;;;;;5018813;28;20124;-85
2023/05/19 14:45:51;;;;;;;0.22;0.10;;;;;;;;;;5014293;28;20045;-84
2023/05/19 14:48:21;;;;;;;0.20;0.15;;;;;;;;;;5010117;28;20029;-85
2023/05/19 14:50:47;;;;;;;0.32;0.30;;;;;;;;;;5018503;28;21580;-80